Time,TemperatureF,DewpointF,PressureIn,WindDirection,WindDirectionDegrees,WindSpeedMPH,WindSpeedGustMPH,Humidity,HourlyPrecipIn,Conditions,Clouds,dailyrainin,SolarRadiationWatts/m^2,SoftwareType,DateUTC
2013-12-06 00:00:00,27.0,25.0,30.20,NNW,331,0.0,6.0,92,0.00,,SKC,0.00,0.00,VWS V14.01,2013-12-06 06:00:00,
2013-12-06 00:02:00,27.1,25.4,30.20,NNW,331,7.0,7.0,93,0.00,,SKC,0.00,0.00,VWS V14.01,2013-12-06 06:02:00,
2013-12-06 00:07:00,27.0,25.0,30.20,NNW,331,4.0,8.0,92,0.00,,SKC,0.00,0.00,VWS V14.01,2013-12-06 06:07:00,
2013-12-06 00:10:00,27.0,25.2,30.19,NNW,331,0.0,5.0,93,0.00,,SKC,0.00,0.00,VWS V14.01,2013-12-06 06:10:00,
2013-12-06 00:12:00,26.9,24.9,30.20,NNW,331,6.0,8.0,92,0.00,,SKC,0.00,0.00,VWS V14.01,2013-12-06 06:12:00,
2013-12-06 00:17:00,26.9,24.9,30.20,NNW,331,8.0,9.0,92,0.00,,SKC,0.00,0.00,VWS V14.01,2013-12-06 06:17:00,
2013-12-06 00:20:00,27.2,25.5,30.19,NNW,331,0.0,5.0,93,0.00,,SKC,0.00,0.00,VWS V14.01,2013-12-06 06:20:00,
2013-12-06 00:22:00,26.8,24.8,30.19,NNW,331,8.0,8.0,92,0.00,,SKC,0.00,0.00,VWS V14.01,2013-12-06 06:22:00,
2013-12-06 00:27:00,26.8,24.8,30.19,NNW,331,0.0,9.0,92,0.00,,SKC,0.00,0.00,VWS V14.01,2013-12-06 06:27:00,
2013-12-06 00:30:00,27.2,25.5,30.19,NNW,331,0.0,5.0,93,0.00,,SKC,0.00,0.00,VWS V14.01,2013-12-06 06:30:00,
2013-12-06 00:32:00,26.7,24.7,30.19,NNW,331,7.0,9.0,92,0.00,,SKC,0.00,0.00,VWS V14.01,2013-12-06 06:32:00,
2013-12-06 00:37:00,26.7,24.7,30.20,NNW,331,5.0,10.0,92,0.00,,SKC,0.00,0.00,VWS V14.01,2013-12-06 06:37:00,
2013-12-06 00:40:00,27.3,25.5,30.20,NNW,331,1.0,5.0,93,0.00,,SKC,0.00,0.00,VWS V14.01,2013-12-06 06:40:00,
2013-12-06 00:42:00,26.7,24.7,30.20,NNW,331,5.0,5.0,92,0.00,,SKC,0.00,0.00,VWS V14.01,2013-12-06 06:42:00,
2013-12-06 00:47:00,26.7,24.7,30.20,NNW,331,2.0,6.0,92,0.00,,SKC,0.00,0.00,VWS V14.01,2013-12-06 06:47:00,
2013-12-06 00:50:00,27.4,25.6,30.23,NNW,331,0.0,7.0,93,0.00,,SKC,0.00,0.00,VWS V14.01,2013-12-06 06:50:00,
2013-12-06 00:52:00,26.9,24.9,30.19,NNW,331,2.0,4.0,92,0.00,,SKC,0.00,0.00,VWS V14.01,2013-12-06 06:52:00,
2013-12-06 00:57:00,26.9,24.9,30.20,NNW,331,0.0,6.0,92,0.00,,SKC,0.00,0.00,VWS V14.01,2013-12-06 06:57:00,
2013-12-06 01:00:00,27.6,25.8,30.21,NNW,331,4.0,5.0,93,0.00,,SKC,0.00,0.00,VWS V14.01,2013-12-06 07:00:00,
2013-12-06 01:02:00,27.0,25.2,30.20,NNW,331,0.0,4.0,93,0.00,,SKC,0.00,0.00,VWS V14.01,2013-12-06 07:02:00,
2013-12-06 01:07:00,27.0,25.2,30.20,NNW,331,0.0,5.0,93,0.00,,SKC,0.00,0.00,VWS V14.01,2013-12-06 07:07:00,
2013-12-06 01:10:00,27.4,25.6,30.21,NNW,331,0.0,7.0,93,0.00,,SKC,0.00,0.00,VWS V14.01,2013-12-06 07:10:00,
2013-12-06 01:12:00,27.0,25.0,30.19,NNW,331,0.0,1.0,92,0.00,,SKC,0.00,0.00,VWS V14.01,2013-12-06 07:12:00,
2013-12-06 01:17:00,27.2,25.5,30.19,NNW,331,0.0,4.0,93,0.00,,SKC,0.00,0.00,VWS V14.01,2013-12-06 07:17:00,
2013-12-06 01:20:00,27.6,25.8,30.22,NNW,331,2.0,5.0,93,0.00,,SKC,0.00,0.00,VWS V14.01,2013-12-06 07:20:00,
2013-12-06 01:22:00,27.2,25.5,30.19,NNW,331,0.0,0.0,93,0.00,,SKC,0.00,0.00,VWS V14.01,2013-12-06 07:22:00,
2013-12-06 01:27:00,27.2,25.5,30.19,NNW,331,4.0,4.0,93,0.00,,SKC,0.00,0.00,VWS V14.01,2013-12-06 07:27:00,
2013-12-06 01:30:00,27.9,26.1,30.22,NNW,331,2.0,8.0,93,0.00,,SKC,0.00,0.00,VWS V14.01,2013-12-06 07:30:00,
2013-12-06 01:32:00,27.2,25.5,30.19,NNW,331,1.0,1.0,93,0.00,,SKC,0.00,0.00,VWS V14.01,2013-12-06 07:32:00,
2013-12-06 01:37:00,27.2,25.5,30.20,NNW,331,2.0,5.0,93,0.00,,SKC,0.00,0.00,VWS V14.01,2013-12-06 07:37:00,
2013-12-06 01:40:00,27.9,26.1,30.23,NNW,331,1.0,7.0,93,0.00,,SKC,0.00,0.00,VWS V14.01,2013-12-06 07:40:00,
2013-12-06 01:42:00,27.3,25.5,30.20,NNW,331,1.0,2.0,93,0.00,,SKC,0.00,0.00,VWS V14.01,2013-12-06 07:42:00,
2013-12-06 01:47:00,27.4,25.6,30.22,NNW,331,4.0,6.0,93,0.00,,SKC,0.00,0.00,VWS V14.01,2013-12-06 07:47:00,
2013-12-06 01:50:00,28.0,26.2,30.23,NNW,331,0.0,7.0,93,0.00,,SKC,0.00,0.00,VWS V14.01,2013-12-06 07:50:00,
2013-12-06 01:52:00,27.4,25.6,30.22,NNW,331,0.0,0.0,93,0.00,,SKC,0.00,0.00,VWS V14.01,2013-12-06 07:52:00,
2013-12-06 01:57:00,27.5,25.8,30.21,NNW,331,0.0,4.0,93,0.00,,SKC,0.00,0.00,VWS V14.01,2013-12-06 07:57:00,
2013-12-06 02:00:00,28.1,26.3,30.23,NNW,331,6.0,8.0,93,0.00,,SKC,0.00,0.00,VWS V14.01,2013-12-06 08:00:00,
2013-12-06 02:02:00,27.6,25.8,30.21,NNW,331,4.0,5.0,93,0.00,,SKC,0.00,0.00,VWS V14.01,2013-12-06 08:02:00,
2013-12-06 02:07:00,27.5,25.8,30.21,NNW,331,5.0,7.0,93,0.00,,SKC,0.00,0.00,VWS V14.01,2013-12-06 08:07:00,
2013-12-06 02:10:00,28.4,26.9,30.23,NNW,331,0.0,10.0,94,0.00,,SKC,0.00,0.00,VWS V14.01,2013-12-06 08:10:00,
2013-12-06 02:12:00,27.4,25.6,30.22,NNW,331,1.0,4.0,93,0.00,,SKC,0.00,0.00,VWS V14.01,2013-12-06 08:12:00,
2013-12-06 02:17:00,27.5,27.5,30.22,NNW,331,2.0,5.0,100,0.00,,SKC,0.00,0.00,VWS V14.01,2013-12-06 08:17:00,
2013-12-06 02:20:00,28.4,26.9,30.24,NNW,331,5.0,7.0,94,0.00,,SKC,0.00,0.00,VWS V14.01,2013-12-06 08:20:00,
2013-12-06 02:22:00,27.6,25.8,30.22,NNW,331,2.0,2.0,93,0.00,,SKC,0.00,0.00,VWS V14.01,2013-12-06 08:22:00,
2013-12-06 02:27:00,27.7,25.9,30.23,NNW,331,4.0,8.0,93,0.00,,SKC,0.00,0.00,VWS V14.01,2013-12-06 08:27:00,
2013-12-06 02:30:00,28.6,27.1,30.23,NNW,331,0.0,10.0,94,0.00,,SKC,0.00,0.00,VWS V14.01,2013-12-06 08:30:00,
2013-12-06 02:32:00,27.8,26.0,30.22,NNW,331,5.0,5.0,93,0.00,,SKC,0.00,0.00,VWS V14.01,2013-12-06 08:32:00,
2013-12-06 02:37:00,27.9,26.1,30.23,NNW,331,6.0,7.0,93,0.00,,SKC,0.00,0.00,VWS V14.01,2013-12-06 08:37:00,
2013-12-06 02:40:00,28.8,27.3,30.23,NNW,331,1.0,6.0,94,0.00,,SKC,0.00,0.00,VWS V14.01,2013-12-06 08:40:00,
2013-12-06 02:42:00,27.9,26.1,30.23,NNW,331,2.0,2.0,93,0.00,,SKC,0.00,0.00,VWS V14.01,2013-12-06 08:42:00,
2013-12-06 02:47:00,28.0,26.2,30.23,NNW,331,4.0,5.0,93,0.00,,SKC,0.00,0.00,VWS V14.01,2013-12-06 08:47:00,
2013-12-06 02:50:00,29.0,27.5,30.25,NNW,331,7.0,8.0,94,0.00,,SKC,0.00,0.00,VWS V14.01,2013-12-06 08:50:00,
2013-12-06 02:52:00,28.0,26.2,30.23,NNW,331,7.0,7.0,93,0.00,,SKC,0.00,0.00,VWS V14.01,2013-12-06 08:52:00,
2013-12-06 02:57:00,28.0,26.2,30.23,NNW,331,4.0,7.0,93,0.00,,SKC,0.00,0.00,VWS V14.01,2013-12-06 08:57:00,
2013-12-06 03:00:00,28.9,27.4,30.26,NNW,329,4.0,12.0,94,0.00,,SKC,0.00,0.00,VWS V14.01,2013-12-06 09:00:00,
2013-12-06 03:02:00,28.1,26.3,30.23,NNW,331,5.0,7.0,93,0.00,,SKC,0.00,0.00,VWS V14.01,2013-12-06 09:02:00,
2013-12-06 03:07:00,28.3,26.8,30.23,NNW,331,2.0,10.0,94,0.00,,SKC,0.00,0.00,VWS V14.01,2013-12-06 09:07:00,
2013-12-06 03:10:00,28.4,26.9,30.28,NNW,329,7.0,11.0,94,0.00,,SKC,0.00,0.00,VWS V14.01,2013-12-06 09:10:00,
2013-12-06 03:12:00,28.4,26.9,30.22,NNW,331,2.0,6.0,94,0.00,,SKC,0.00,0.00,VWS V14.01,2013-12-06 09:12:00,
2013-12-06 03:17:00,28.4,26.9,30.22,NNW,331,5.0,6.0,94,0.00,,SKC,0.00,0.00,VWS V14.01,2013-12-06 09:17:00,
2013-12-06 03:20:00,27.7,26.2,30.29,NNW,329,7.0,11.0,94,0.00,,SKC,0.00,0.00,VWS V14.01,2013-12-06 09:20:00,
2013-12-06 03:22:00,28.4,26.9,30.24,NNW,331,1.0,6.0,94,0.00,,SKC,0.00,0.00,VWS V14.01,2013-12-06 09:22:00,
2013-12-06 03:27:00,28.5,27.0,30.24,NNW,331,5.0,6.0,94,0.00,,SKC,0.00,0.00,VWS V14.01,2013-12-06 09:27:00,
2013-12-06 03:30:00,27.3,25.8,30.29,NNW,329,4.0,13.0,94,0.00,,SKC,0.00,0.00,VWS V14.01,2013-12-06 09:30:00,
2013-12-06 03:32:00,28.6,27.1,30.23,NNW,331,0.0,2.0,94,0.00,,SKC,0.00,0.00,VWS V14.01,2013-12-06 09:32:00,
2013-12-06 03:37:00,28.7,27.2,30.24,NNW,331,6.0,6.0,94,0.00,,SKC,0.00,0.00,VWS V14.01,2013-12-06 09:37:00,
2013-12-06 03:40:00,27.2,25.7,30.29,NNW,329,7.0,10.0,94,0.00,,SKC,0.00,0.00,VWS V14.01,2013-12-06 09:40:00,
2013-12-06 03:42:00,28.8,27.3,30.24,NNW,331,6.0,6.0,94,0.00,,SKC,0.00,0.00,VWS V14.01,2013-12-06 09:42:00,
2013-12-06 03:47:00,28.8,27.3,30.24,NNW,331,0.0,8.0,94,0.00,,SKC,0.00,0.00,VWS V14.01,2013-12-06 09:47:00,
2013-12-06 03:50:00,26.9,25.1,30.31,NNW,329,5.0,10.0,93,0.00,,SKC,0.00,0.00,VWS V14.01,2013-12-06 09:50:00,
2013-12-06 03:52:00,29.0,27.5,30.25,NNW,331,4.0,7.0,94,0.00,,SKC,0.00,0.00,VWS V14.01,2013-12-06 09:52:00,
2013-12-06 03:57:00,29.0,27.5,30.26,NNW,329,5.0,12.0,94,0.00,,SKC,0.00,0.00,VWS V14.01,2013-12-06 09:57:00,
2013-12-06 04:00:00,26.7,25.0,30.30,NNW,329,1.0,10.0,93,0.00,,SKC,0.00,0.00,VWS V14.01,2013-12-06 10:00:00,
2013-12-06 04:02:00,28.9,27.4,30.26,NNW,329,8.0,8.0,94,0.00,,SKC,0.00,0.00,VWS V14.01,2013-12-06 10:02:00,
2013-12-06 04:07:00,28.7,27.2,30.27,NNW,329,7.0,11.0,94,0.00,,SKC,0.00,0.00,VWS V14.01,2013-12-06 10:07:00,
2013-12-06 04:10:00,26.5,24.8,30.31,NNW,329,4.0,10.0,93,0.00,,SKC,0.00,0.00,VWS V14.01,2013-12-06 10:10:00,
2013-12-06 04:12:00,28.4,26.9,30.27,NNW,329,8.0,8.0,94,0.00,,SKC,0.00,0.00,VWS V14.01,2013-12-06 10:12:00,
2013-12-06 04:17:00,28.0,26.5,30.27,NNW,329,7.0,11.0,94,0.00,,SKC,0.00,0.00,VWS V14.01,2013-12-06 10:17:00,
2013-12-06 04:20:00,26.4,24.6,30.31,NNW,329,6.0,10.0,93,0.00,,SKC,0.00,0.00,VWS V14.01,2013-12-06 10:20:00,
2013-12-06 04:22:00,27.7,26.2,30.28,NNW,329,7.0,7.0,94,0.00,,SKC,0.00,0.00,VWS V14.01,2013-12-06 10:22:00,
2013-12-06 04:27:00,27.4,25.9,30.29,NNW,329,6.0,9.0,94,0.00,,SKC,0.00,0.00,VWS V14.01,2013-12-06 10:27:00,
2013-12-06 04:30:00,26.2,24.5,30.30,NNW,329,5.0,11.0,93,0.00,,SKC,0.00,0.00,VWS V14.01,2013-12-06 10:30:00,
2013-12-06 04:32:00,27.2,25.7,30.29,NNW,329,4.0,5.0,94,0.00,,SKC,0.00,0.00,VWS V14.01,2013-12-06 10:32:00,
2013-12-06 04:37:00,27.2,25.7,30.30,NNW,329,6.0,8.0,94,0.00,,SKC,0.00,0.00,VWS V14.01,2013-12-06 10:37:00,
2013-12-06 04:40:00,26.3,24.3,30.33,NNW,329,5.0,7.0,92,0.00,,SKC,0.00,0.00,VWS V14.01,2013-12-06 10:40:00,
2013-12-06 04:42:00,27.2,25.7,30.29,NNW,329,7.0,7.0,94,0.00,,SKC,0.00,0.00,VWS V14.01,2013-12-06 10:42:00,
2013-12-06 04:47:00,27.0,25.2,30.30,NNW,329,5.0,10.0,93,0.00,,SKC,0.00,0.00,VWS V14.01,2013-12-06 10:47:00,
2013-12-06 04:50:00,26.4,24.4,30.33,NNW,329,0.0,6.0,92,0.00,,SKC,0.00,0.00,VWS V14.01,2013-12-06 10:50:00,
2013-12-06 04:52:00,26.9,25.1,30.31,NNW,329,4.0,8.0,93,0.00,,SKC,0.00,0.00,VWS V14.01,2013-12-06 10:52:00,
2013-12-06 04:57:00,26.9,25.1,30.30,NNW,329,6.0,9.0,93,0.00,,SKC,0.00,0.00,VWS V14.01,2013-12-06 10:57:00,
2013-12-06 05:00:00,26.5,24.8,30.34,NNW,329,0.0,6.0,93,0.00,,SKC,0.00,0.00,VWS V14.01,2013-12-06 11:00:00,
2013-12-06 05:02:00,26.7,25.0,30.31,NNW,329,0.0,1.0,93,0.00,,SKC,0.00,0.00,VWS V14.01,2013-12-06 11:02:00,
2013-12-06 05:07:00,26.5,24.8,30.32,NNW,329,4.0,10.0,93,0.00,,SKC,0.00,0.00,VWS V14.01,2013-12-06 11:07:00,
2013-12-06 05:10:00,26.5,24.8,30.35,NNW,329,2.0,10.0,93,0.00,,SKC,0.00,0.00,VWS V14.01,2013-12-06 11:10:00,
2013-12-06 05:12:00,26.5,24.8,30.31,NNW,329,2.0,6.0,93,0.00,,SKC,0.00,0.00,VWS V14.01,2013-12-06 11:12:00,
2013-12-06 05:17:00,26.4,24.6,30.31,NNW,329,6.0,10.0,93,0.00,,SKC,0.00,0.00,VWS V14.01,2013-12-06 11:17:00,
2013-12-06 05:20:00,26.7,25.0,30.36,NNW,329,6.0,6.0,93,0.00,,SKC,0.00,0.00,VWS V14.01,2013-12-06 11:20:00,
2013-12-06 05:22:00,26.4,24.6,30.31,NNW,329,4.0,6.0,93,0.00,,SKC,0.00,0.00,VWS V14.01,2013-12-06 11:22:00,
2013-12-06 05:27:00,26.3,24.6,30.31,NNW,329,9.0,11.0,93,0.00,,SKC,0.00,0.00,VWS V14.01,2013-12-06 11:27:00,
2013-12-06 05:30:00,26.7,24.7,30.36,NNW,329,6.0,6.0,92,0.00,,SKC,0.00,0.00,VWS V14.01,2013-12-06 11:30:00,
2013-12-06 05:32:00,26.2,24.5,30.31,NNW,329,2.0,6.0,93,0.00,,SKC,0.00,0.00,VWS V14.01,2013-12-06 11:32:00,
2013-12-06 05:37:00,26.3,24.6,30.33,NNW,329,2.0,6.0,93,0.00,,SKC,0.00,0.00,VWS V14.01,2013-12-06 11:37:00,
2013-12-06 05:40:00,26.9,25.1,30.37,NNW,329,4.0,10.0,93,0.00,,SKC,0.00,0.00,VWS V14.01,2013-12-06 11:40:00,
2013-12-06 05:42:00,26.3,24.3,30.33,NNW,329,5.0,6.0,92,0.00,,SKC,0.00,0.00,VWS V14.01,2013-12-06 11:42:00,
2013-12-06 05:47:00,26.3,24.3,30.32,NNW,329,0.0,6.0,92,0.00,,SKC,0.00,0.00,VWS V14.01,2013-12-06 11:47:00,
2013-12-06 05:50:00,26.9,25.1,30.40,NNW,329,5.0,9.0,93,0.00,,SKC,0.00,0.00,VWS V14.01,2013-12-06 11:50:00,
2013-12-06 05:52:00,26.4,24.4,30.34,NNW,329,0.0,0.0,92,0.00,,SKC,0.00,0.00,VWS V14.01,2013-12-06 11:52:00,
2013-12-06 05:57:00,26.5,24.8,30.35,NNW,329,4.0,6.0,93,0.00,,SKC,0.00,0.00,VWS V14.01,2013-12-06 11:57:00,
2013-12-06 06:00:00,26.9,25.1,30.39,NNW,329,5.0,9.0,93,0.00,,SKC,0.00,0.00,VWS V14.01,2013-12-06 12:00:00,
2013-12-06 06:02:00,26.5,24.8,30.34,NNW,329,0.0,0.0,93,0.00,,SKC,0.00,0.00,VWS V14.01,2013-12-06 12:02:00,
2013-12-06 06:07:00,26.5,24.8,30.35,NNW,329,2.0,10.0,93,0.00,,SKC,0.00,0.00,VWS V14.01,2013-12-06 12:07:00,
2013-12-06 06:10:00,26.9,25.1,30.41,NNW,329,4.0,7.0,93,0.00,,SKC,0.00,0.00,VWS V14.01,2013-12-06 12:10:00,
2013-12-06 06:12:00,26.5,24.8,30.35,NNW,329,2.0,4.0,93,0.00,,SKC,0.00,0.00,VWS V14.01,2013-12-06 12:12:00,
2013-12-06 06:17:00,26.6,24.9,30.35,NNW,329,5.0,5.0,93,0.00,,SKC,0.00,0.00,VWS V14.01,2013-12-06 12:17:00,
2013-12-06 06:20:00,26.9,25.1,30.41,NNW,329,5.0,8.0,93,0.00,,SKC,0.00,0.00,VWS V14.01,2013-12-06 12:20:00,
2013-12-06 06:22:00,26.7,25.0,30.36,NNW,329,6.0,6.0,93,0.00,,SKC,0.00,0.00,VWS V14.01,2013-12-06 12:22:00,
2013-12-06 06:27:00,26.7,25.0,30.36,NNW,329,5.0,6.0,93,0.00,,SKC,0.00,0.00,VWS V14.01,2013-12-06 12:27:00,
2013-12-06 06:30:00,27.1,25.4,30.41,NNW,329,5.0,10.0,93,0.00,,SKC,0.00,0.00,VWS V14.01,2013-12-06 12:30:00,
2013-12-06 06:32:00,26.7,24.7,30.36,NNW,329,7.0,7.0,92,0.00,,SKC,0.00,0.00,VWS V14.01,2013-12-06 12:32:00,
2013-12-06 06:37:00,26.8,25.0,30.36,NNW,329,5.0,7.0,93,0.00,,SKC,0.00,0.00,VWS V14.01,2013-12-06 12:37:00,
2013-12-06 06:40:00,27.2,25.5,30.41,NNW,329,5.0,8.0,93,0.00,,SKC,0.00,5.00,VWS V14.01,2013-12-06 12:40:00,
2013-12-06 06:42:00,26.9,25.1,30.37,NNW,329,5.0,5.0,93,0.00,,SKC,0.00,0.00,VWS V14.01,2013-12-06 12:42:00,
2013-12-06 06:47:00,26.9,25.1,30.38,NNW,329,6.0,8.0,93,0.00,,SKC,0.00,0.00,VWS V14.01,2013-12-06 12:47:00,
2013-12-06 06:50:00,27.4,25.6,30.42,NNW,329,0.0,6.0,93,0.00,,SKC,0.00,7.00,VWS V14.01,2013-12-06 12:50:00,
2013-12-06 06:52:00,27.0,25.2,30.40,NNW,329,4.0,5.0,93,0.00,,SKC,0.00,0.00,VWS V14.01,2013-12-06 12:52:00,
2013-12-06 06:57:00,26.9,25.1,30.39,NNW,329,4.0,7.0,93,0.00,,SKC,0.00,0.00,VWS V14.01,2013-12-06 12:57:00,
2013-12-06 07:00:00,27.7,26.2,30.43,NNW,329,0.0,7.0,94,0.00,,SKC,0.00,7.00,VWS V14.01,2013-12-06 13:00:00,
2013-12-06 07:02:00,26.9,25.1,30.39,NNW,329,5.0,9.0,93,0.00,,SKC,0.00,0.00,VWS V14.01,2013-12-06 13:02:00,
2013-12-06 07:07:00,26.9,25.1,30.40,NNW,329,5.0,7.0,93,0.00,,SKC,0.00,0.00,VWS V14.01,2013-12-06 13:07:00,
2013-12-06 07:10:00,27.9,26.4,30.44,NNW,329,9.0,9.0,94,0.00,,SKC,0.00,11.00,VWS V14.01,2013-12-06 13:10:00,
2013-12-06 07:12:00,26.9,25.1,30.41,NNW,329,4.0,5.0,93,0.00,,SKC,0.00,0.00,VWS V14.01,2013-12-06 13:12:00,
2013-12-06 07:17:00,26.9,25.1,30.40,NNW,329,5.0,8.0,93,0.00,,SKC,0.00,0.00,VWS V14.01,2013-12-06 13:17:00,
2013-12-06 07:20:00,28.3,26.8,30.44,NNW,329,2.0,9.0,94,0.00,,SKC,0.00,21.00,VWS V14.01,2013-12-06 13:20:00,
2013-12-06 07:22:00,26.9,25.1,30.41,NNW,329,4.0,5.0,93,0.00,,SKC,0.00,0.00,VWS V14.01,2013-12-06 13:22:00,
2013-12-06 07:27:00,27.1,25.4,30.41,NNW,329,5.0,8.0,93,0.00,,SKC,0.00,0.00,VWS V14.01,2013-12-06 13:27:00,
2013-12-06 07:30:00,28.6,27.1,30.45,NNW,329,5.0,12.0,94,0.00,,SKC,0.00,25.00,VWS V14.01,2013-12-06 13:30:00,
2013-12-06 07:32:00,27.1,25.4,30.41,NNW,329,4.0,5.0,93,0.00,,SKC,0.00,0.00,VWS V14.01,2013-12-06 13:32:00,
2013-12-06 07:37:00,27.2,25.5,30.42,NNW,329,2.0,8.0,93,0.00,,SKC,0.00,0.00,VWS V14.01,2013-12-06 13:37:00,
2013-12-06 07:40:00,28.1,26.3,30.48,NNW,329,1.0,10.0,93,0.00,,SKC,0.00,21.00,VWS V14.01,2013-12-06 13:40:00,
2013-12-06 07:42:00,27.2,25.5,30.41,NNW,329,2.0,5.0,93,0.00,,SKC,0.00,5.00,VWS V14.01,2013-12-06 13:42:00,
2013-12-06 07:47:00,27.4,25.9,30.41,NNW,329,2.0,6.0,94,0.00,,SKC,0.00,7.00,VWS V14.01,2013-12-06 13:47:00,
2013-12-06 07:50:00,27.9,26.1,30.47,NNW,329,7.0,11.0,93,0.00,,SKC,0.00,42.00,VWS V14.01,2013-12-06 13:50:00,
2013-12-06 07:52:00,27.5,25.8,30.42,NNW,329,4.0,5.0,93,0.00,,SKC,0.00,7.00,VWS V14.01,2013-12-06 13:52:00,
2013-12-06 07:57:00,27.5,25.8,30.42,NNW,329,6.0,7.0,93,0.00,,SKC,0.00,9.00,VWS V14.01,2013-12-06 13:57:00,
2013-12-06 08:00:00,27.8,26.0,30.47,NNW,329,2.0,9.0,93,0.00,,SKC,0.00,49.00,VWS V14.01,2013-12-06 14:00:00,
2013-12-06 08:02:00,27.7,26.2,30.44,NNW,329,0.0,0.0,94,0.00,,SKC,0.00,7.00,VWS V14.01,2013-12-06 14:02:00,
2013-12-06 08:07:00,27.8,26.3,30.43,NNW,329,2.0,6.0,94,0.00,,SKC,0.00,12.00,VWS V14.01,2013-12-06 14:07:00,
2013-12-06 08:10:00,28.0,26.2,30.46,NNW,329,4.0,8.0,93,0.00,,SKC,0.00,54.00,VWS V14.01,2013-12-06 14:10:00,
2013-12-06 08:12:00,27.9,26.4,30.44,NNW,329,7.0,9.0,94,0.00,,SKC,0.00,11.00,VWS V14.01,2013-12-06 14:12:00,
2013-12-06 08:17:00,28.0,26.5,30.44,NNW,329,5.0,9.0,94,0.00,,SKC,0.00,16.00,VWS V14.01,2013-12-06 14:17:00,
2013-12-06 08:20:00,28.0,26.2,30.48,NNW,329,2.0,8.0,93,0.00,,SKC,0.00,46.00,VWS V14.01,2013-12-06 14:20:00,
2013-12-06 08:22:00,28.3,26.8,30.44,NNW,329,2.0,4.0,94,0.00,,SKC,0.00,21.00,VWS V14.01,2013-12-06 14:22:00,
2013-12-06 08:27:00,28.6,27.1,30.45,NNW,329,6.0,7.0,94,0.00,,SKC,0.00,19.00,VWS V14.01,2013-12-06 14:27:00,
2013-12-06 08:30:00,28.1,26.3,30.48,NNW,329,5.0,7.0,93,0.00,,SKC,0.00,44.00,VWS V14.01,2013-12-06 14:30:00,
2013-12-06 08:32:00,28.6,27.1,30.45,NNW,329,5.0,6.0,94,0.00,,SKC,0.00,25.00,VWS V14.01,2013-12-06 14:32:00,
2013-12-06 08:37:00,28.3,26.5,30.46,NNW,329,5.0,10.0,93,0.00,,SKC,0.00,23.00,VWS V14.01,2013-12-06 14:37:00,
2013-12-06 08:40:00,27.6,25.6,30.50,NNW,329,4.0,11.0,92,0.00,,SKC,0.00,81.00,VWS V14.01,2013-12-06 14:40:00,
2013-12-06 08:42:00,28.1,26.3,30.48,NNW,329,4.0,5.0,93,0.00,,SKC,0.00,21.00,VWS V14.01,2013-12-06 14:42:00,
2013-12-06 08:47:00,28.0,26.2,30.47,NNW,329,5.0,7.0,93,0.00,,SKC,0.00,37.00,VWS V14.01,2013-12-06 14:47:00,
2013-12-06 08:50:00,27.2,25.2,30.50,NNW,329,7.0,11.0,92,0.00,,SKC,0.00,105.00,VWS V14.01,2013-12-06 14:50:00,
2013-12-06 08:52:00,27.9,26.1,30.48,NNW,329,7.0,7.0,93,0.00,,SKC,0.00,42.00,VWS V14.01,2013-12-06 14:52:00,
2013-12-06 08:57:00,27.8,26.0,30.48,NNW,329,5.0,8.0,93,0.00,,SKC,0.00,39.00,VWS V14.01,2013-12-06 14:57:00,
2013-12-06 09:00:00,27.3,25.3,30.51,NNW,329,6.0,10.0,92,0.00,,SKC,0.00,135.00,VWS V14.01,2013-12-06 15:00:00,
2013-12-06 09:02:00,27.8,26.0,30.47,NNW,329,5.0,5.0,93,0.00,,SKC,0.00,49.00,VWS V14.01,2013-12-06 15:02:00,
2013-12-06 09:07:00,27.9,26.1,30.48,NNW,329,2.0,7.0,93,0.00,,SKC,0.00,53.00,VWS V14.01,2013-12-06 15:07:00,
2013-12-06 09:10:00,27.4,25.4,30.52,NNW,329,5.0,9.0,92,0.00,,SKC,0.00,111.00,VWS V14.01,2013-12-06 15:10:00,
2013-12-06 09:12:00,28.0,26.2,30.46,NNW,329,2.0,4.0,93,0.00,,SKC,0.00,56.00,VWS V14.01,2013-12-06 15:12:00,
2013-12-06 09:17:00,28.0,26.2,30.47,NNW,329,4.0,8.0,93,0.00,,SKC,0.00,60.00,VWS V14.01,2013-12-06 15:17:00,
2013-12-06 09:20:00,27.6,25.6,30.52,NNW,329,5.0,8.0,92,0.00,,SKC,0.00,74.00,VWS V14.01,2013-12-06 15:20:00,
2013-12-06 09:22:00,28.0,26.2,30.49,NNW,329,4.0,5.0,93,0.00,,SKC,0.00,46.00,VWS V14.01,2013-12-06 15:22:00,
2013-12-06 09:27:00,28.1,26.3,30.48,NNW,329,2.0,6.0,93,0.00,,SKC,0.00,44.00,VWS V14.01,2013-12-06 15:27:00,
2013-12-06 09:30:00,27.1,25.1,30.52,NNW,329,6.0,11.0,92,0.00,,SKC,0.00,132.00,VWS V14.01,2013-12-06 15:30:00,
2013-12-06 09:32:00,28.1,26.3,30.48,NNW,329,5.0,5.0,93,0.00,,SKC,0.00,44.00,VWS V14.01,2013-12-06 15:32:00,
2013-12-06 09:37:00,27.9,26.1,30.49,NNW,329,8.0,11.0,93,0.00,,SKC,0.00,56.00,VWS V14.01,2013-12-06 15:37:00,
2013-12-06 09:40:00,27.0,25.0,30.52,NNW,329,2.0,10.0,92,0.00,,SKC,0.00,153.00,VWS V14.01,2013-12-06 15:40:00,
2013-12-06 09:42:00,27.6,25.6,30.50,NNW,329,5.0,7.0,92,0.00,,SKC,0.00,81.00,VWS V14.01,2013-12-06 15:42:00,
2013-12-06 09:47:00,27.2,25.2,30.49,NNW,329,6.0,11.0,92,0.00,,SKC,0.00,142.00,VWS V14.01,2013-12-06 15:47:00,
2013-12-06 09:50:00,27.2,25.2,30.53,NNW,329,6.0,10.0,92,0.00,,SKC,0.00,149.00,VWS V14.01,2013-12-06 15:50:00,
2013-12-06 09:52:00,27.2,25.2,30.50,NNW,329,5.0,7.0,92,0.00,,SKC,0.00,105.00,VWS V14.01,2013-12-06 15:52:00,
2013-12-06 09:57:00,27.2,25.2,30.50,NNW,329,8.0,10.0,92,0.00,,SKC,0.00,141.00,VWS V14.01,2013-12-06 15:57:00,
2013-12-06 10:00:00,27.3,25.3,30.52,NNW,329,2.0,9.0,92,0.00,,SKC,0.00,105.00,VWS V14.01,2013-12-06 16:00:00,
2013-12-06 10:02:00,27.3,25.3,30.51,NNW,329,5.0,6.0,92,0.00,,SKC,0.00,135.00,VWS V14.01,2013-12-06 16:02:00,
2013-12-06 10:07:00,27.4,25.4,30.51,NNW,329,4.0,9.0,92,0.00,,SKC,0.00,151.00,VWS V14.01,2013-12-06 16:07:00,
2013-12-06 10:10:00,27.1,25.1,30.52,NNW,329,4.0,9.0,92,0.00,,SKC,0.00,171.00,VWS V14.01,2013-12-06 16:10:00,
2013-12-06 10:12:00,27.4,25.4,30.52,NNW,329,7.0,7.0,92,0.00,,SKC,0.00,111.00,VWS V14.01,2013-12-06 16:12:00,
2013-12-06 10:17:00,27.5,25.5,30.51,NNW,329,5.0,8.0,92,0.00,,SKC,0.00,107.00,VWS V14.01,2013-12-06 16:17:00,
2013-12-06 10:20:00,27.1,24.8,30.52,NNW,329,9.0,10.0,91,0.00,,SKC,0.00,197.00,VWS V14.01,2013-12-06 16:20:00,
2013-12-06 10:22:00,27.6,25.6,30.52,NNW,329,4.0,5.0,92,0.00,,SKC,0.00,74.00,VWS V14.01,2013-12-06 16:22:00,
2013-12-06 10:27:00,27.4,25.4,30.52,NNW,329,8.0,11.0,92,0.00,,SKC,0.00,107.00,VWS V14.01,2013-12-06 16:27:00,
2013-12-06 10:30:00,27.1,24.8,30.52,NNW,329,5.0,12.0,91,0.00,,SKC,0.00,165.00,VWS V14.01,2013-12-06 16:30:00,
2013-12-06 10:32:00,27.1,25.1,30.51,NNW,329,8.0,8.0,92,0.00,,SKC,0.00,132.00,VWS V14.01,2013-12-06 16:32:00,
2013-12-06 10:37:00,27.0,25.0,30.52,NNW,329,5.0,8.0,92,0.00,,SKC,0.00,123.00,VWS V14.01,2013-12-06 16:37:00,
2013-12-06 10:40:00,27.0,24.7,30.53,NNW,329,4.0,9.0,91,0.00,,SKC,0.00,146.00,VWS V14.01,2013-12-06 16:40:00,
2013-12-06 10:42:00,27.0,25.0,30.52,NNW,329,2.0,2.0,92,0.00,,SKC,0.00,153.00,VWS V14.01,2013-12-06 16:42:00,
2013-12-06 10:47:00,27.1,25.1,30.52,NNW,329,6.0,9.0,92,0.00,,SKC,0.00,183.00,VWS V14.01,2013-12-06 16:47:00,
2013-12-06 10:50:00,26.9,24.4,30.53,NNW,329,6.0,10.0,90,0.00,,SKC,0.00,139.00,VWS V14.01,2013-12-06 16:50:00,
2013-12-06 10:52:00,27.2,25.2,30.53,NNW,329,6.0,6.0,92,0.00,,SKC,0.00,146.00,VWS V14.01,2013-12-06 16:52:00,
2013-12-06 10:57:00,27.1,25.1,30.52,NNW,329,5.0,9.0,92,0.00,,SKC,0.00,163.00,VWS V14.01,2013-12-06 16:57:00,
2013-12-06 11:00:00,26.7,24.2,30.53,NNW,329,2.0,10.0,90,0.00,,SKC,0.00,181.00,VWS V14.01,2013-12-06 17:00:00,
2013-12-06 11:02:00,27.3,25.3,30.52,NNW,329,2.0,9.0,92,0.00,,SKC,0.00,105.00,VWS V14.01,2013-12-06 17:02:00,
2013-12-06 11:07:00,27.3,25.3,30.53,NNW,329,9.0,9.0,92,0.00,,SKC,0.00,127.00,VWS V14.01,2013-12-06 17:07:00,
2013-12-06 11:10:00,26.8,24.3,30.53,NNW,329,8.0,11.0,90,0.00,,SKC,0.00,114.00,VWS V14.01,2013-12-06 17:10:00,
2013-12-06 11:12:00,27.1,25.1,30.52,NNW,329,4.0,4.0,92,0.00,,SKC,0.00,171.00,VWS V14.01,2013-12-06 17:12:00,
2013-12-06 11:17:00,27.1,24.8,30.52,NNW,329,6.0,9.0,91,0.00,,SKC,0.00,155.00,VWS V14.01,2013-12-06 17:17:00,
2013-12-06 11:20:00,26.6,24.1,30.54,NNW,329,5.0,10.0,90,0.00,,SKC,0.00,111.00,VWS V14.01,2013-12-06 17:20:00,
2013-12-06 11:22:00,27.1,24.8,30.52,NNW,329,6.0,9.0,91,0.00,,SKC,0.00,197.00,VWS V14.01,2013-12-06 17:22:00,
2013-12-06 11:27:00,27.1,24.8,30.52,NNW,329,6.0,11.0,91,0.00,,SKC,0.00,181.00,VWS V14.01,2013-12-06 17:27:00,
2013-12-06 11:30:00,26.5,24.2,30.54,NNW,329,1.0,10.0,91,0.00,,SKC,0.00,104.00,VWS V14.01,2013-12-06 17:30:00,
2013-12-06 11:32:00,27.1,24.8,30.53,NNW,329,5.0,5.0,91,0.00,,SKC,0.00,165.00,VWS V14.01,2013-12-06 17:32:00,
2013-12-06 11:37:00,27.0,24.7,30.53,NNW,329,5.0,9.0,91,0.00,,SKC,0.00,149.00,VWS V14.01,2013-12-06 17:37:00,
2013-12-06 11:40:00,26.3,24.0,30.54,NNW,329,5.0,12.0,91,0.00,,SKC,0.00,127.00,VWS V14.01,2013-12-06 17:40:00,
2013-12-06 11:42:00,27.0,24.7,30.53,NNW,329,4.0,9.0,91,0.00,,SKC,0.00,146.00,VWS V14.01,2013-12-06 17:42:00,
2013-12-06 11:47:00,27.0,24.7,30.53,NNW,329,6.0,8.0,91,0.00,,SKC,0.00,116.00,VWS V14.01,2013-12-06 17:47:00,
2013-12-06 11:50:00,26.6,24.3,30.54,NNW,329,5.0,11.0,91,0.00,,SKC,0.00,141.00,VWS V14.01,2013-12-06 17:50:00,
2013-12-06 11:52:00,26.8,24.3,30.53,NNW,329,8.0,8.0,90,0.00,,SKC,0.00,139.00,VWS V14.01,2013-12-06 17:52:00,
2013-12-06 11:57:00,26.7,24.2,30.53,NNW,329,9.0,10.0,90,0.00,,SKC,0.00,128.00,VWS V14.01,2013-12-06 17:57:00,
2013-12-06 12:00:00,26.6,24.3,30.54,NNW,329,5.0,8.0,91,0.00,,SKC,0.00,114.00,VWS V14.01,2013-12-06 18:00:00,
2013-12-06 12:02:00,26.7,24.2,30.53,NNW,329,2.0,10.0,90,0.00,,SKC,0.00,181.00,VWS V14.01,2013-12-06 18:02:00,
2013-12-06 12:07:00,26.7,24.2,30.53,NNW,329,4.0,11.0,90,0.00,,SKC,0.00,148.00,VWS V14.01,2013-12-06 18:07:00,
2013-12-06 12:10:00,26.3,23.8,30.53,NNW,329,5.0,10.0,90,0.00,,SKC,0.00,135.00,VWS V14.01,2013-12-06 18:10:00,
2013-12-06 12:12:00,26.8,24.3,30.53,NNW,329,7.0,10.0,90,0.00,,SKC,0.00,114.00,VWS V14.01,2013-12-06 18:12:00,
2013-12-06 12:17:00,26.8,24.3,30.54,NNW,329,7.0,10.0,90,0.00,,SKC,0.00,98.00,VWS V14.01,2013-12-06 18:17:00,
2013-12-06 12:20:00,26.5,24.0,30.53,NNW,329,6.0,8.0,90,0.00,,SKC,0.00,128.00,VWS V14.01,2013-12-06 18:20:00,
2013-12-06 12:22:00,26.6,24.1,30.54,NNW,329,5.0,5.0,90,0.00,,SKC,0.00,111.00,VWS V14.01,2013-12-06 18:22:00,
2013-12-06 12:27:00,26.6,24.3,30.54,NNW,329,4.0,9.0,91,0.00,,SKC,0.00,102.00,VWS V14.01,2013-12-06 18:27:00,
2013-12-06 12:30:00,26.3,23.8,30.53,NNW,329,8.0,12.0,90,0.00,,SKC,0.00,114.00,VWS V14.01,2013-12-06 18:30:00,
2013-12-06 12:32:00,26.5,24.2,30.54,NNW,329,1.0,10.0,91,0.00,,SKC,0.00,104.00,VWS V14.01,2013-12-06 18:32:00,
2013-12-06 12:37:00,26.4,24.1,30.53,NNW,329,4.0,12.0,91,0.00,,SKC,0.00,123.00,VWS V14.01,2013-12-06 18:37:00,
2013-12-06 12:40:00,26.2,23.7,30.53,NNW,329,4.0,11.0,90,0.00,,SKC,0.00,127.00,VWS V14.01,2013-12-06 18:40:00,
2013-12-06 12:42:00,26.3,24.0,30.54,NNW,329,4.0,5.0,91,0.00,,SKC,0.00,127.00,VWS V14.01,2013-12-06 18:42:00,
2013-12-06 12:47:00,26.5,24.2,30.53,NNW,329,10.0,11.0,91,0.00,,SKC,0.00,130.00,VWS V14.01,2013-12-06 18:47:00,
2013-12-06 12:50:00,26.5,24.2,30.53,NNW,329,2.0,10.0,91,0.00,,SKC,0.00,128.00,VWS V14.01,2013-12-06 18:50:00,
2013-12-06 12:52:00,26.6,24.3,30.54,NNW,329,6.0,6.0,91,0.00,,SKC,0.00,141.00,VWS V14.01,2013-12-06 18:52:00,
2013-12-06 12:57:00,26.7,24.4,30.53,NNW,329,7.0,8.0,91,0.00,,SKC,0.00,121.00,VWS V14.01,2013-12-06 18:57:00,
2013-12-06 13:00:00,26.8,24.3,30.53,NNW,329,6.0,9.0,90,0.00,,SKC,0.00,120.00,VWS V14.01,2013-12-06 19:00:00,
2013-12-06 13:02:00,26.6,24.3,30.54,NNW,329,5.0,8.0,91,0.00,,SKC,0.00,114.00,VWS V14.01,2013-12-06 19:02:00,
2013-12-06 13:07:00,26.4,23.9,30.54,NNW,329,9.0,10.0,90,0.00,,SKC,0.00,113.00,VWS V14.01,2013-12-06 19:07:00,
2013-12-06 13:10:00,26.9,24.4,30.53,NNW,329,4.0,11.0,90,0.00,,SKC,0.00,114.00,VWS V14.01,2013-12-06 19:10:00,
2013-12-06 13:12:00,26.3,23.8,30.53,NNW,329,5.0,10.0,90,0.00,,SKC,0.00,135.00,VWS V14.01,2013-12-06 19:12:00,
2013-12-06 13:17:00,26.3,23.8,30.53,NNW,329,8.0,8.0,90,0.00,,SKC,0.00,142.00,VWS V14.01,2013-12-06 19:17:00,
2013-12-06 13:20:00,27.1,24.6,30.53,NNW,329,6.0,11.0,90,0.00,,SKC,0.00,127.00,VWS V14.01,2013-12-06 19:20:00,
2013-12-06 13:22:00,26.5,24.0,30.53,NNW,329,6.0,6.0,90,0.00,,SKC,0.00,128.00,VWS V14.01,2013-12-06 19:22:00,
2013-12-06 13:27:00,26.5,24.0,30.53,NNW,329,6.0,8.0,90,0.00,,SKC,0.00,116.00,VWS V14.01,2013-12-06 19:27:00,
2013-12-06 13:30:00,27.0,24.5,30.53,NNW,329,8.0,12.0,90,0.00,,SKC,0.00,109.00,VWS V14.01,2013-12-06 19:30:00,
2013-12-06 13:32:00,26.3,23.8,30.53,NNW,329,8.0,12.0,90,0.00,,SKC,0.00,114.00,VWS V14.01,2013-12-06 19:32:00,
2013-12-06 13:37:00,26.2,23.7,30.53,NNW,329,5.0,10.0,90,0.00,,SKC,0.00,123.00,VWS V14.01,2013-12-06 19:37:00,
2013-12-06 13:40:00,27.1,24.6,30.53,NNW,329,7.0,10.0,90,0.00,,SKC,0.00,109.00,VWS V14.01,2013-12-06 19:40:00,
2013-12-06 13:42:00,26.2,23.7,30.53,NNW,329,4.0,11.0,90,0.00,,SKC,0.00,127.00,VWS V14.01,2013-12-06 19:42:00,
2013-12-06 13:47:00,26.2,23.7,30.53,NNW,329,6.0,10.0,90,0.00,,SKC,0.00,134.00,VWS V14.01,2013-12-06 19:47:00,
2013-12-06 13:50:00,27.2,24.7,30.53,NNW,329,0.0,9.0,90,0.00,,SKC,0.00,113.00,VWS V14.01,2013-12-06 19:50:00,
2013-12-06 13:52:00,26.5,24.2,30.53,NNW,329,4.0,4.0,91,0.00,,SKC,0.00,128.00,VWS V14.01,2013-12-06 19:52:00,
2013-12-06 13:57:00,26.7,24.2,30.53,NNW,329,7.0,9.0,90,0.00,,SKC,0.00,121.00,VWS V14.01,2013-12-06 19:57:00,
2013-12-06 14:00:00,27.4,24.9,30.52,NNW,329,6.0,8.0,90,0.00,,SKC,0.00,151.00,VWS V14.01,2013-12-06 20:00:00,
2013-12-06 14:02:00,26.8,24.3,30.53,NNW,329,6.0,9.0,90,0.00,,SKC,0.00,120.00,VWS V14.01,2013-12-06 20:02:00,
2013-12-06 14:07:00,26.8,24.3,30.53,NNW,329,5.0,11.0,90,0.00,,SKC,0.00,102.00,VWS V14.01,2013-12-06 20:07:00,
2013-12-06 14:10:00,27.5,25.0,30.54,NNW,329,8.0,9.0,90,0.00,,SKC,0.00,98.00,VWS V14.01,2013-12-06 20:10:00,
2013-12-06 14:12:00,26.9,24.4,30.53,NNW,329,4.0,11.0,90,0.00,,SKC,0.00,114.00,VWS V14.01,2013-12-06 20:12:00,
2013-12-06 14:17:00,27.0,24.5,30.53,NNW,329,2.0,9.0,90,0.00,,SKC,0.00,135.00,VWS V14.01,2013-12-06 20:17:00,
2013-12-06 14:20:00,27.6,25.1,30.54,NNW,329,2.0,11.0,90,0.00,,SKC,0.00,98.00,VWS V14.01,2013-12-06 20:20:00,
2013-12-06 14:22:00,27.1,24.6,30.53,NNW,329,6.0,11.0,90,0.00,,SKC,0.00,127.00,VWS V14.01,2013-12-06 20:22:00,
2013-12-06 14:27:00,27.0,24.5,30.53,NNW,329,5.0,12.0,90,0.00,,SKC,0.00,111.00,VWS V14.01,2013-12-06 20:27:00,
2013-12-06 14:30:00,27.5,24.7,30.54,NNW,329,7.0,10.0,89,0.00,,SKC,0.00,91.00,VWS V14.01,2013-12-06 20:30:00,
2013-12-06 14:32:00,27.0,24.5,30.53,NNW,329,8.0,12.0,90,0.00,,SKC,0.00,109.00,VWS V14.01,2013-12-06 20:32:00,
2013-12-06 14:37:00,27.1,24.6,30.53,NNW,329,5.0,10.0,90,0.00,,SKC,0.00,118.00,VWS V14.01,2013-12-06 20:37:00,
2013-12-06 14:40:00,27.7,25.2,30.54,NNW,329,6.0,9.0,90,0.00,,SKC,0.00,100.00,VWS V14.01,2013-12-06 20:40:00,
2013-12-06 14:41:00,27.1,24.6,30.53,NNW,329,7.0,10.0,90,0.00,,SKC,0.00,109.00,VWS V14.01,2013-12-06 20:41:00,
2013-12-06 14:46:00,27.2,24.7,30.53,NNW,329,2.0,9.0,90,0.00,,SKC,0.00,118.00,VWS V14.01,2013-12-06 20:46:00,
2013-12-06 14:50:00,27.8,25.2,30.54,NNW,329,4.0,8.0,90,0.00,,SKC,0.00,98.00,VWS V14.01,2013-12-06 20:50:00,
2013-12-06 14:51:00,27.2,24.7,30.53,NNW,329,2.0,9.0,90,0.00,,SKC,0.00,123.00,VWS V14.01,2013-12-06 20:51:00,
2013-12-06 14:56:00,27.4,24.9,30.53,NNW,329,2.0,8.0,90,0.00,,SKC,0.00,104.00,VWS V14.01,2013-12-06 20:56:00,
2013-12-06 15:00:00,28.0,25.2,30.54,NNW,329,4.0,10.0,89,0.00,,SKC,0.00,97.00,VWS V14.01,2013-12-06 21:00:00,
2013-12-06 15:01:00,27.5,25.0,30.52,NNW,329,6.0,8.0,90,0.00,,SKC,0.00,151.00,VWS V14.01,2013-12-06 21:01:00,
2013-12-06 15:06:00,27.5,25.0,30.53,NNW,329,6.0,9.0,90,0.00,,SKC,0.00,121.00,VWS V14.01,2013-12-06 21:06:00,
2013-12-06 15:10:00,28.2,25.4,30.54,NNW,329,6.0,10.0,89,0.00,,SKC,0.00,90.00,VWS V14.01,2013-12-06 21:10:00,
2013-12-06 15:11:00,27.5,25.0,30.54,NNW,329,6.0,9.0,90,0.00,,SKC,0.00,98.00,VWS V14.01,2013-12-06 21:11:00,
2013-12-06 15:16:00,27.6,25.1,30.53,NNW,329,6.0,8.0,90,0.00,,SKC,0.00,132.00,VWS V14.01,2013-12-06 21:16:00,
2013-12-06 15:20:00,28.1,25.3,30.55,NNW,329,4.0,9.0,89,0.00,,SKC,0.00,70.00,VWS V14.01,2013-12-06 21:20:00,
2013-12-06 15:21:00,27.6,25.1,30.54,NNW,329,5.0,11.0,90,0.00,,SKC,0.00,98.00,VWS V14.01,2013-12-06 21:21:00,
2013-12-06 15:26:00,27.6,25.1,30.53,NNW,329,6.0,10.0,90,0.00,,SKC,0.00,100.00,VWS V14.01,2013-12-06 21:26:00,
2013-12-06 15:30:00,28.2,25.1,30.55,NNW,329,6.0,11.0,88,0.00,,SKC,0.00,63.00,VWS V14.01,2013-12-06 21:30:00,
2013-12-06 15:31:00,27.5,24.7,30.54,NNW,329,6.0,10.0,89,0.00,,SKC,0.00,91.00,VWS V14.01,2013-12-06 21:31:00,
2013-12-06 15:36:00,27.6,25.1,30.54,NNW,329,6.0,9.0,90,0.00,,SKC,0.00,91.00,VWS V14.01,2013-12-06 21:36:00,
2013-12-06 15:40:00,28.1,25.0,30.56,NNW,329,5.0,8.0,88,0.00,,SKC,0.00,47.00,VWS V14.01,2013-12-06 21:40:00,
2013-12-06 15:41:00,27.7,25.2,30.54,NNW,329,8.0,9.0,90,0.00,,SKC,0.00,100.00,VWS V14.01,2013-12-06 21:41:00,
2013-12-06 15:46:00,27.7,25.2,30.54,NNW,329,5.0,7.0,90,0.00,,SKC,0.00,111.00,VWS V14.01,2013-12-06 21:46:00,
2013-12-06 15:50:00,28.1,25.0,30.57,NNW,329,1.0,8.0,88,0.00,,SKC,0.00,28.00,VWS V14.01,2013-12-06 21:50:00,
2013-12-06 15:51:00,27.8,25.2,30.54,NNW,329,7.0,8.0,90,0.00,,SKC,0.00,98.00,VWS V14.01,2013-12-06 21:51:00,
2013-12-06 15:56:00,28.0,25.5,30.54,NNW,329,5.0,10.0,90,0.00,,SKC,0.00,86.00,VWS V14.01,2013-12-06 21:56:00,
2013-12-06 16:00:00,28.0,24.9,30.57,NNW,329,10.0,10.0,88,0.00,,SKC,0.00,23.00,VWS V14.01,2013-12-06 22:00:00,
2013-12-06 16:01:00,28.0,25.2,30.54,NNW,329,5.0,10.0,89,0.00,,SKC,0.00,97.00,VWS V14.01,2013-12-06 22:01:00,
2013-12-06 16:06:00,28.1,25.3,30.54,NNW,329,9.0,9.0,89,0.00,,SKC,0.00,104.00,VWS V14.01,2013-12-06 22:06:00,
2013-12-06 16:10:00,27.9,24.8,30.58,NNW,329,5.0,10.0,88,0.00,,SKC,0.00,14.00,VWS V14.01,2013-12-06 22:10:00,
2013-12-06 16:11:00,28.2,25.4,30.54,NNW,329,7.0,10.0,89,0.00,,SKC,0.00,90.00,VWS V14.01,2013-12-06 22:11:00,
2013-12-06 16:16:00,28.1,25.3,30.54,NNW,329,4.0,9.0,89,0.00,,SKC,0.00,83.00,VWS V14.01,2013-12-06 22:16:00,
2013-12-06 16:20:00,27.8,24.7,30.59,NNW,329,4.0,7.0,88,0.00,,SKC,0.00,7.00,VWS V14.01,2013-12-06 22:20:00,
2013-12-06 16:21:00,28.1,25.3,30.55,NNW,329,6.0,9.0,89,0.00,,SKC,0.00,70.00,VWS V14.01,2013-12-06 22:21:00,
2013-12-06 16:26:00,28.2,25.4,30.55,NNW,329,7.0,7.0,89,0.00,,SKC,0.00,67.00,VWS V14.01,2013-12-06 22:26:00,
2013-12-06 16:30:00,27.7,24.6,30.59,NNW,329,0.0,8.0,88,0.00,,SKC,0.00,0.00,VWS V14.01,2013-12-06 22:30:00,
2013-12-06 16:31:00,28.2,25.1,30.55,NNW,329,4.0,11.0,88,0.00,,SKC,0.00,65.00,VWS V14.01,2013-12-06 22:31:00,
2013-12-06 16:36:00,28.2,25.1,30.56,NNW,329,2.0,8.0,88,0.00,,SKC,0.00,60.00,VWS V14.01,2013-12-06 22:36:00,
2013-12-06 16:40:00,27.5,24.4,30.59,NNW,329,5.0,8.0,88,0.00,,SKC,0.00,0.00,VWS V14.01,2013-12-06 22:40:00,
2013-12-06 16:41:00,28.1,25.0,30.56,NNW,329,5.0,8.0,88,0.00,,SKC,0.00,47.00,VWS V14.01,2013-12-06 22:41:00,
2013-12-06 16:46:00,28.1,25.0,30.57,NNW,329,4.0,7.0,88,0.00,,SKC,0.00,39.00,VWS V14.01,2013-12-06 22:46:00,
2013-12-06 16:50:00,27.4,24.3,30.60,NNW,329,0.0,8.0,88,0.00,,SKC,0.00,0.00,VWS V14.01,2013-12-06 22:50:00,
2013-12-06 16:51:00,28.1,25.0,30.57,NNW,329,0.0,8.0,88,0.00,,SKC,0.00,28.00,VWS V14.01,2013-12-06 22:51:00,
2013-12-06 16:56:00,28.1,25.0,30.58,NNW,329,1.0,7.0,88,0.00,,SKC,0.00,25.00,VWS V14.01,2013-12-06 22:56:00,
2013-12-06 17:00:00,27.3,24.0,30.60,NNW,329,0.0,5.0,87,0.00,,SKC,0.00,0.00,VWS V14.01,2013-12-06 23:00:00,
2013-12-06 17:01:00,28.0,24.9,30.57,NNW,329,4.0,8.0,88,0.00,,SKC,0.00,25.00,VWS V14.01,2013-12-06 23:01:00,
2013-12-06 17:06:00,27.9,24.8,30.57,NNW,329,1.0,10.0,88,0.00,,SKC,0.00,19.00,VWS V14.01,2013-12-06 23:06:00,
2013-12-06 17:10:00,27.2,24.1,30.61,NNW,329,0.0,5.0,88,0.00,,SKC,0.00,0.00,VWS V14.01,2013-12-06 23:10:00,
2013-12-06 17:11:00,27.9,24.8,30.57,NNW,329,5.0,10.0,88,0.00,,SKC,0.00,14.00,VWS V14.01,2013-12-06 23:11:00,
2013-12-06 17:16:00,27.9,24.8,30.58,NNW,329,1.0,7.0,88,0.00,,SKC,0.00,12.00,VWS V14.01,2013-12-06 23:16:00,
2013-12-06 17:20:00,27.2,24.1,30.62,NNW,329,0.0,4.0,88,0.00,,SKC,0.00,0.00,VWS V14.01,2013-12-06 23:20:00,
2013-12-06 17:21:00,27.8,24.7,30.59,NNW,329,4.0,7.0,88,0.00,,SKC,0.00,7.00,VWS V14.01,2013-12-06 23:21:00,
2013-12-06 17:26:00,27.8,24.7,30.58,NNW,329,4.0,8.0,88,0.00,,SKC,0.00,5.00,VWS V14.01,2013-12-06 23:26:00,
2013-12-06 17:30:00,27.2,24.1,30.61,NNW,329,0.0,5.0,88,0.00,,SKC,0.00,0.00,VWS V14.01,2013-12-06 23:30:00,
2013-12-06 17:31:00,27.7,24.6,30.59,NNW,329,4.0,8.0,88,0.00,,SKC,0.00,0.00,VWS V14.01,2013-12-06 23:31:00,
2013-12-06 17:36:00,27.6,24.5,30.59,NNW,329,4.0,8.0,88,0.00,,SKC,0.00,0.00,VWS V14.01,2013-12-06 23:36:00,
2013-12-06 17:40:00,27.2,24.1,30.62,NNW,329,2.0,5.0,88,0.00,,SKC,0.00,0.00,VWS V14.01,2013-12-06 23:40:00,
2013-12-06 17:41:00,27.5,24.4,30.59,NNW,329,7.0,8.0,88,0.00,,SKC,0.00,0.00,VWS V14.01,2013-12-06 23:41:00,
2013-12-06 17:46:00,27.5,24.4,30.59,NNW,329,8.0,8.0,88,0.00,,SKC,0.00,0.00,VWS V14.01,2013-12-06 23:46:00,
2013-12-06 17:50:00,27.3,24.2,30.63,NNW,329,2.0,4.0,88,0.00,,SKC,0.00,0.00,VWS V14.01,2013-12-06 23:50:00,
2013-12-06 17:51:00,27.4,24.0,30.60,NNW,329,1.0,8.0,87,0.00,,SKC,0.00,0.00,VWS V14.01,2013-12-06 23:51:00,
2013-12-06 17:56:00,27.3,24.0,30.60,NNW,329,0.0,5.0,87,0.00,,SKC,0.00,0.00,VWS V14.01,2013-12-06 23:56:00,
2013-12-06 18:00:00,27.3,24.2,30.63,NNW,329,1.0,5.0,88,0.00,,SKC,0.00,0.00,VWS V14.01,2013-12-07 00:00:00,
2013-12-06 18:01:00,27.3,24.0,30.60,NNW,329,0.0,5.0,87,0.00,,SKC,0.00,0.00,VWS V14.01,2013-12-07 00:01:00,
2013-12-06 18:06:00,27.2,24.1,30.60,NNW,329,0.0,5.0,88,0.00,,SKC,0.00,0.00,VWS V14.01,2013-12-07 00:06:00,
2013-12-06 18:10:00,27.2,24.1,30.64,NNW,329,4.0,9.0,88,0.00,,SKC,0.00,0.00,VWS V14.01,2013-12-07 00:10:00,
2013-12-06 18:11:00,27.2,24.1,30.61,NNW,329,1.0,5.0,88,0.00,,SKC,0.00,0.00,VWS V14.01,2013-12-07 00:11:00,
2013-12-06 18:16:00,27.2,24.1,30.61,NNW,329,0.0,4.0,88,0.00,,SKC,0.00,0.00,VWS V14.01,2013-12-07 00:16:00,
2013-12-06 18:20:00,27.0,23.6,30.64,NNW,329,0.0,7.0,87,0.00,,SKC,0.00,0.00,VWS V14.01,2013-12-07 00:20:00,
2013-12-06 18:21:00,27.2,24.1,30.62,NNW,329,0.0,4.0,88,0.00,,SKC,0.00,0.00,VWS V14.01,2013-12-07 00:21:00,
2013-12-06 18:26:00,27.2,24.1,30.62,NNW,329,1.0,4.0,88,0.00,,SKC,0.00,0.00,VWS V14.01,2013-12-07 00:26:00,
2013-12-06 18:30:00,26.8,23.5,30.65,NNW,329,0.0,6.0,87,0.00,,SKC,0.00,0.00,VWS V14.01,2013-12-07 00:30:00,
2013-12-06 18:31:00,27.2,24.1,30.61,NNW,329,0.0,5.0,88,0.00,,SKC,0.00,0.00,VWS V14.01,2013-12-07 00:31:00,
2013-12-06 18:36:00,27.2,24.1,30.61,NNW,329,2.0,5.0,88,0.00,,SKC,0.00,0.00,VWS V14.01,2013-12-07 00:36:00,
2013-12-06 18:40:00,26.6,23.3,30.65,NNW,329,2.0,7.0,87,0.00,,SKC,0.00,0.00,VWS V14.01,2013-12-07 00:40:00,
2013-12-06 18:41:00,27.2,24.1,30.62,NNW,329,2.0,5.0,88,0.00,,SKC,0.00,0.00,VWS V14.01,2013-12-07 00:41:00,
2013-12-06 18:46:00,27.2,24.1,30.63,NNW,329,2.0,4.0,88,0.00,,SKC,0.00,0.00,VWS V14.01,2013-12-07 00:46:00,
2013-12-06 18:50:00,26.6,23.3,30.66,NNW,329,0.0,6.0,87,0.00,,SKC,0.00,0.00,VWS V14.01,2013-12-07 00:50:00,
2013-12-06 18:51:00,27.3,24.2,30.63,NNW,329,0.0,4.0,88,0.00,,SKC,0.00,0.00,VWS V14.01,2013-12-07 00:51:00,
2013-12-06 18:56:00,27.3,24.2,30.63,NNW,329,0.0,4.0,88,0.00,,SKC,0.00,0.00,VWS V14.01,2013-12-07 00:56:00,
2013-12-06 19:00:00,26.5,23.2,30.67,NNW,329,0.0,4.0,87,0.00,,SKC,0.00,0.00,VWS V14.01,2013-12-07 01:00:00,
2013-12-06 19:01:00,27.3,24.2,30.63,NNW,329,1.0,5.0,88,0.00,,SKC,0.00,0.00,VWS V14.01,2013-12-07 01:01:00,
2013-12-06 19:06:00,27.2,24.1,30.63,NNW,329,2.0,9.0,88,0.00,,SKC,0.00,0.00,VWS V14.01,2013-12-07 01:06:00,
2013-12-06 19:10:00,26.3,23.0,30.67,NNW,329,0.0,4.0,87,0.00,,SKC,0.00,0.00,VWS V14.01,2013-12-07 01:10:00,
2013-12-06 19:11:00,27.2,24.1,30.64,NNW,329,4.0,9.0,88,0.00,,SKC,0.00,0.00,VWS V14.01,2013-12-07 01:11:00,
2013-12-06 19:16:00,27.2,23.9,30.64,NNW,329,2.0,7.0,87,0.00,,SKC,0.00,0.00,VWS V14.01,2013-12-07 01:16:00,
2013-12-06 19:20:00,26.2,22.9,30.67,NNW,329,2.0,5.0,87,0.00,,SKC,0.00,0.00,VWS V14.01,2013-12-07 01:20:00,
2013-12-06 19:21:00,27.0,23.6,30.64,NNW,329,0.0,7.0,87,0.00,,SKC,0.00,0.00,VWS V14.01,2013-12-07 01:21:00,
2013-12-06 19:26:00,26.9,23.6,30.65,NNW,329,1.0,6.0,87,0.00,,SKC,0.00,0.00,VWS V14.01,2013-12-07 01:26:00,
2013-12-06 19:30:00,26.2,22.9,30.68,NNW,329,0.0,5.0,87,0.00,,SKC,0.00,0.00,VWS V14.01,2013-12-07 01:30:00,
2013-12-06 19:31:00,26.8,23.5,30.65,NNW,329,2.0,6.0,87,0.00,,SKC,0.00,0.00,VWS V14.01,2013-12-07 01:31:00,
2013-12-06 19:36:00,26.7,23.4,30.66,NNW,329,2.0,7.0,87,0.00,,SKC,0.00,0.00,VWS V14.01,2013-12-07 01:36:00,
2013-12-06 19:40:00,26.1,23.0,30.69,NNW,329,1.0,2.0,88,0.00,,SKC,0.00,0.00,VWS V14.01,2013-12-07 01:40:00,
2013-12-06 19:41:00,26.7,23.4,30.66,NNW,329,2.0,7.0,87,0.00,,SKC,0.00,0.00,VWS V14.01,2013-12-07 01:41:00,
2013-12-06 19:46:00,26.6,23.3,30.66,NNW,329,2.0,6.0,87,0.00,,SKC,0.00,0.00,VWS V14.01,2013-12-07 01:46:00,
2013-12-06 19:50:00,26.0,22.7,30.69,NNW,329,2.0,6.0,87,0.00,,SKC,0.00,0.00,VWS V14.01,2013-12-07 01:50:00,
2013-12-06 19:51:00,26.6,23.3,30.66,NNW,329,0.0,6.0,87,0.00,,SKC,0.00,0.00,VWS V14.01,2013-12-07 01:51:00,
2013-12-06 19:56:00,26.5,23.2,30.66,NNW,329,0.0,2.0,87,0.00,,SKC,0.00,0.00,VWS V14.01,2013-12-07 01:56:00,
2013-12-06 20:00:00,25.7,22.1,30.70,NNW,329,0.0,5.0,86,0.00,,SKC,0.00,0.00,VWS V14.01,2013-12-07 02:00:00,
2013-12-06 20:01:00,26.5,23.2,30.67,NNW,329,2.0,4.0,87,0.00,,SKC,0.00,0.00,VWS V14.01,2013-12-07 02:01:00,
2013-12-06 20:06:00,26.4,23.1,30.67,NNW,329,0.0,4.0,87,0.00,,SKC,0.00,0.00,VWS V14.01,2013-12-07 02:06:00,
2013-12-06 20:10:00,25.5,21.9,30.70,NNW,329,1.0,6.0,86,0.00,,SKC,0.00,0.00,VWS V14.01,2013-12-07 02:10:00,
2013-12-06 20:11:00,26.4,23.1,30.67,NNW,329,0.0,4.0,87,0.00,,SKC,0.00,0.00,VWS V14.01,2013-12-07 02:11:00,
2013-12-06 20:16:00,26.3,23.0,30.68,NNW,329,0.0,5.0,87,0.00,,SKC,0.00,0.00,VWS V14.01,2013-12-07 02:16:00,
2013-12-06 20:20:00,25.3,21.7,30.70,NNW,329,0.0,6.0,86,0.00,,SKC,0.00,0.00,VWS V14.01,2013-12-07 02:20:00,
2013-12-06 20:21:00,26.3,23.0,30.67,NNW,329,4.0,5.0,87,0.00,,SKC,0.00,0.00,VWS V14.01,2013-12-07 02:21:00,
2013-12-06 20:26:00,26.2,22.9,30.68,NNW,329,0.0,5.0,87,0.00,,SKC,0.00,0.00,VWS V14.01,2013-12-07 02:26:00,
2013-12-06 20:30:00,25.3,21.7,30.71,NNW,329,4.0,6.0,86,0.00,,SKC,0.00,0.00,VWS V14.01,2013-12-07 02:30:00,
2013-12-06 20:31:00,26.2,23.1,30.68,NNW,329,1.0,5.0,88,0.00,,SKC,0.00,0.00,VWS V14.01,2013-12-07 02:31:00,
2013-12-06 20:36:00,26.2,23.1,30.68,NNW,329,0.0,0.0,88,0.00,,SKC,0.00,0.00,VWS V14.01,2013-12-07 02:36:00,
2013-12-06 20:40:00,25.3,21.7,30.71,NNW,329,7.0,7.0,86,0.00,,SKC,0.00,0.00,VWS V14.01,2013-12-07 02:40:00,
2013-12-06 20:41:00,26.1,23.0,30.69,NNW,329,0.0,2.0,88,0.00,,SKC,0.00,0.00,VWS V14.01,2013-12-07 02:41:00,
2013-12-06 20:46:00,26.1,23.0,30.69,NNW,329,1.0,4.0,88,0.00,,SKC,0.00,0.00,VWS V14.01,2013-12-07 02:46:00,
2013-12-06 20:50:00,25.3,21.7,30.71,NNW,329,4.0,7.0,86,0.00,,SKC,0.00,0.00,VWS V14.01,2013-12-07 02:50:00,
2013-12-06 20:51:00,26.0,22.7,30.69,NNW,329,2.0,6.0,87,0.00,,SKC,0.00,0.00,VWS V14.01,2013-12-07 02:51:00,
2013-12-06 20:56:00,25.8,22.5,30.70,NNW,329,2.0,5.0,87,0.00,,SKC,0.00,0.00,VWS V14.01,2013-12-07 02:56:00,
2013-12-06 21:00:00,25.2,21.6,30.71,NNW,329,0.0,7.0,86,0.00,,SKC,0.00,0.00,VWS V14.01,2013-12-07 03:00:00,
2013-12-06 21:01:00,25.7,22.4,30.70,NNW,329,0.0,5.0,87,0.00,,SKC,0.00,0.00,VWS V14.01,2013-12-07 03:01:00,
2013-12-06 21:06:00,25.6,22.0,30.70,NNW,329,0.0,6.0,86,0.00,,SKC,0.00,0.00,VWS V14.01,2013-12-07 03:06:00,
2013-12-06 21:10:00,25.2,21.6,30.71,NNW,329,7.0,7.0,86,0.00,,SKC,0.00,0.00,VWS V14.01,2013-12-07 03:10:00,
2013-12-06 21:11:00,25.5,21.9,30.70,NNW,329,2.0,6.0,86,0.00,,SKC,0.00,0.00,VWS V14.01,2013-12-07 03:11:00,
2013-12-06 21:16:00,25.4,21.8,30.70,NNW,329,4.0,6.0,86,0.00,,SKC,0.00,0.00,VWS V14.01,2013-12-07 03:16:00,
2013-12-06 21:20:00,25.1,21.5,30.72,NNW,329,4.0,8.0,86,0.00,,SKC,0.00,0.00,VWS V14.01,2013-12-07 03:20:00,
2013-12-06 21:21:00,25.3,21.7,30.70,NNW,329,0.0,6.0,86,0.00,,SKC,0.00,0.00,VWS V14.01,2013-12-07 03:21:00,
2013-12-06 21:26:00,25.3,21.7,30.71,NNW,329,1.0,2.0,86,0.00,,SKC,0.00,0.00,VWS V14.01,2013-12-07 03:26:00,
2013-12-06 21:30:00,25.1,21.5,30.73,NNW,329,5.0,7.0,86,0.00,,SKC,0.00,0.00,VWS V14.01,2013-12-07 03:30:00,
2013-12-06 21:31:00,25.3,21.7,30.71,NNW,329,0.0,6.0,86,0.00,,SKC,0.00,0.00,VWS V14.01,2013-12-07 03:31:00,
2013-12-06 21:36:00,25.3,21.7,30.71,NNW,329,2.0,6.0,86,0.00,,SKC,0.00,0.00,VWS V14.01,2013-12-07 03:36:00,
2013-12-06 21:40:00,24.9,21.3,30.73,NNW,329,4.0,8.0,86,0.00,,SKC,0.00,0.00,VWS V14.01,2013-12-07 03:40:00,
2013-12-06 21:41:00,25.3,21.7,30.71,NNW,329,5.0,7.0,86,0.00,,SKC,0.00,0.00,VWS V14.01,2013-12-07 03:41:00,
2013-12-06 21:46:00,25.3,21.7,30.71,NNW,329,1.0,7.0,86,0.00,,SKC,0.00,0.00,VWS V14.01,2013-12-07 03:46:00,
2013-12-06 21:50:00,24.7,21.1,30.73,NNW,329,4.0,8.0,86,0.00,,SKC,0.00,0.00,VWS V14.01,2013-12-07 03:50:00,
2013-12-06 21:51:00,25.3,21.7,30.71,NNW,329,5.0,7.0,86,0.00,,SKC,0.00,0.00,VWS V14.01,2013-12-07 03:51:00,
2013-12-06 21:56:00,25.2,21.6,30.71,NNW,329,7.0,7.0,86,0.00,,SKC,0.00,0.00,VWS V14.01,2013-12-07 03:56:00,
2013-12-06 22:00:00,24.4,20.8,30.73,NNW,329,2.0,8.0,86,0.00,,SKC,0.00,0.00,VWS V14.01,2013-12-07 04:00:00,
2013-12-06 22:01:00,25.2,21.6,30.71,NNW,329,1.0,7.0,86,0.00,,SKC,0.00,0.00,VWS V14.01,2013-12-07 04:01:00,
2013-12-06 22:06:00,25.2,21.6,30.72,NNW,329,2.0,6.0,86,0.00,,SKC,0.00,0.00,VWS V14.01,2013-12-07 04:06:00,
2013-12-06 22:10:00,24.1,20.5,30.72,NNW,329,1.0,7.0,86,0.00,,SKC,0.00,0.00,VWS V14.01,2013-12-07 04:10:00,
2013-12-06 22:11:00,25.2,21.6,30.71,NNW,329,5.0,6.0,86,0.00,,SKC,0.00,0.00,VWS V14.01,2013-12-07 04:11:00,
2013-12-06 22:16:00,25.1,21.5,30.72,NNW,329,2.0,8.0,86,0.00,,SKC,0.00,0.00,VWS V14.01,2013-12-07 04:16:00,
2013-12-06 22:20:00,23.8,20.2,30.73,NNW,329,0.0,9.0,86,0.00,,SKC,0.00,0.00,VWS V14.01,2013-12-07 04:20:00,
2013-12-06 22:21:00,25.1,21.5,30.72,NNW,329,4.0,8.0,86,0.00,,SKC,0.00,0.00,VWS V14.01,2013-12-07 04:21:00,
2013-12-06 22:26:00,25.1,21.5,30.73,NNW,329,2.0,6.0,86,0.00,,SKC,0.00,0.00,VWS V14.01,2013-12-07 04:26:00,
2013-12-06 22:30:00,23.5,19.9,30.72,NNW,329,1.0,8.0,86,0.00,,SKC,0.00,0.00,VWS V14.01,2013-12-07 04:30:00,
2013-12-06 22:31:00,25.1,21.5,30.73,NNW,329,5.0,7.0,86,0.00,,SKC,0.00,0.00,VWS V14.01,2013-12-07 04:31:00,
2013-12-06 22:36:00,25.0,21.4,30.73,NNW,329,5.0,8.0,86,0.00,,SKC,0.00,0.00,VWS V14.01,2013-12-07 04:36:00,
2013-12-06 22:40:00,23.4,19.8,30.72,NNW,329,0.0,7.0,86,0.00,,SKC,0.00,0.00,VWS V14.01,2013-12-07 04:40:00,
2013-12-06 22:41:00,24.9,21.3,30.73,NNW,329,2.0,8.0,86,0.00,,SKC,0.00,0.00,VWS V14.01,2013-12-07 04:41:00,
2013-12-06 22:46:00,24.8,21.2,30.73,NNW,329,5.0,7.0,86,0.00,,SKC,0.00,0.00,VWS V14.01,2013-12-07 04:46:00,
2013-12-06 22:50:00,23.2,19.9,30.72,NNW,329,4.0,7.0,87,0.00,,SKC,0.00,0.00,VWS V14.01,2013-12-07 04:50:00,
2013-12-06 22:51:00,24.7,21.1,30.73,NNW,329,5.0,8.0,86,0.00,,SKC,0.00,0.00,VWS V14.01,2013-12-07 04:51:00,
2013-12-06 22:56:00,24.6,21.0,30.74,NNW,329,5.0,6.0,86,0.00,,SKC,0.00,0.00,VWS V14.01,2013-12-07 04:56:00,
2013-12-06 23:00:00,23.1,19.8,30.72,NNW,329,4.0,9.0,87,0.00,,SKC,0.00,0.00,VWS V14.01,2013-12-07 05:00:00,
2013-12-06 23:01:00,24.5,20.9,30.73,NNW,329,6.0,8.0,86,0.00,,SKC,0.00,0.00,VWS V14.01,2013-12-07 05:01:00,
2013-12-06 23:02:00,24.4,20.8,30.73,NNW,329,2.0,8.0,86,0.00,,SKC,0.00,0.00,VWS V14.01,2013-12-07 05:02:00,
2013-12-06 23:07:00,24.3,20.7,30.73,NNW,329,0.0,7.0,86,0.00,,SKC,0.00,0.00,VWS V14.01,2013-12-07 05:07:00,
2013-12-06 23:10:00,23.0,19.7,30.72,NNW,329,5.0,7.0,87,0.00,,SKC,0.00,0.00,VWS V14.01,2013-12-07 05:10:00,
2013-12-06 23:12:00,24.1,20.5,30.73,NNW,329,2.0,4.0,86,0.00,,SKC,0.00,0.00,VWS V14.01,2013-12-07 05:12:00,
2013-12-06 23:17:00,23.9,20.3,30.73,NNW,329,5.0,6.0,86,0.00,,SKC,0.00,0.00,VWS V14.01,2013-12-07 05:17:00,
2013-12-06 23:20:00,22.9,19.6,30.72,NNW,329,1.0,9.0,87,0.00,,SKC,0.00,0.00,VWS V14.01,2013-12-07 05:20:00,
2013-12-06 23:22:00,23.8,20.2,30.73,NNW,329,0.0,9.0,86,0.00,,SKC,0.00,0.00,VWS V14.01,2013-12-07 05:22:00,
2013-12-06 23:27:00,23.6,20.0,30.73,NNW,329,4.0,6.0,86,0.00,,SKC,0.00,0.00,VWS V14.01,2013-12-07 05:27:00,
2013-12-06 23:30:00,22.9,19.6,30.72,NNW,329,6.0,6.0,87,0.00,,SKC,0.00,0.00,VWS V14.01,2013-12-07 05:30:00,
2013-12-06 23:32:00,23.5,19.9,30.72,NNW,329,0.0,1.0,86,0.00,,SKC,0.00,0.00,VWS V14.01,2013-12-07 05:32:00,
2013-12-06 23:37:00,23.4,19.8,30.72,NNW,329,1.0,7.0,86,0.00,,SKC,0.00,0.00,VWS V14.01,2013-12-07 05:37:00,
2013-12-06 23:40:00,22.7,19.4,30.73,NNW,329,2.0,6.0,87,0.00,,SKC,0.00,0.00,VWS V14.01,2013-12-07 05:40:00,
2013-12-06 23:42:00,23.4,19.8,30.72,NNW,329,0.0,7.0,86,0.00,,SKC,0.00,0.00,VWS V14.01,2013-12-07 05:42:00,
2013-12-06 23:47:00,23.2,19.9,30.72,NNW,329,2.0,6.0,87,0.00,,SKC,0.00,0.00,VWS V14.01,2013-12-07 05:47:00,
2013-12-06 23:50:00,22.7,19.4,30.73,NNW,329,4.0,6.0,87,0.00,,SKC,0.00,0.00,VWS V14.01,2013-12-07 05:50:00,
2013-12-06 23:52:00,23.2,19.9,30.72,NNW,329,4.0,7.0,87,0.00,,SKC,0.00,0.00,VWS V14.01,2013-12-07 05:52:00,
2013-12-06 23:57:00,23.1,19.8,30.72,NNW,329,2.0,7.0,87,0.00,,SKC,0.00,0.00,VWS V14.01,2013-12-07 05:57:00,